createdAt,value
2023-06-17T00:00:20.326Z,1010.7
2023-06-17T00:15:20.030Z,1010.8
2023-06-17T00:30:20.484Z,1010.6
2023-06-17T00:45:20.065Z,1010.6
2023-06-17T01:00:20.622Z,1010.6
2023-06-17T01:15:20.256Z,1010.6
2023-06-17T01:30:30.024Z,1010.4
2023-06-17T01:45:29.842Z,1010.3
2023-06-17T02:00:20.241Z,1010.4
2023-06-17T02:15:25.620Z,1010.4
2023-06-17T02:30:25.819Z,1010.4
2023-06-17T02:45:29.334Z,1010.4
2023-06-17T03:00:20.644Z,1010.4
2023-06-17T03:15:34.884Z,1010.4
2023-06-17T03:30:20.709Z,1010.3
2023-06-17T03:45:25.573Z,1010.3
2023-06-17T04:03:09.776Z,1010.4
2023-06-17T04:15:21.052Z,1010.4
2023-06-17T04:30:20.642Z,1010.3
2023-06-17T04:45:20.794Z,1010.4
2023-06-17T05:00:22.926Z,1010.5
2023-06-17T05:15:24.894Z,1010.5
2023-06-17T05:30:21.475Z,1010.5
2023-06-17T05:45:21.047Z,1010.5
2023-06-17T06:00:30.555Z,1010.6
2023-06-17T06:15:20.628Z,1010.8
2023-06-17T06:30:23.354Z,1010.8
2023-06-17T06:45:20.826Z,1010.9
2023-06-17T07:00:20.777Z,1011.1
2023-06-17T07:15:20.150Z,1011.1
2023-06-17T07:30:21.162Z,1011.2
2023-06-17T07:45:20.078Z,1011.2
2023-06-17T08:00:21.516Z,1011.2
2023-06-17T08:15:20.108Z,1011.1
2023-06-17T08:30:20.801Z,1010.9
2023-06-17T08:45:20.703Z,1010.9
2023-06-17T09:00:21.894Z,1011
2023-06-17T09:15:20.443Z,1010.9
2023-06-17T09:30:21.430Z,1010.9
2023-06-17T09:45:20.296Z,1010.9
2023-06-17T10:00:25.613Z,1010.8
2023-06-17T10:15:29.104Z,1010.8
2023-06-17T10:30:22.876Z,1010.7
2023-06-17T10:45:19.914Z,1010.8
2023-06-17T11:00:21.523Z,1010.7
2023-06-17T11:15:20.142Z,1010.6
2023-06-17T11:30:21.103Z,1010.5
2023-06-17T11:45:20.333Z,1010.3
2023-06-17T12:00:21.184Z,1010.2
2023-06-17T12:15:37.499Z,1010
2023-06-17T12:30:20.355Z,1010
2023-06-17T12:45:20.785Z,1009.9
2023-06-17T13:00:20.199Z,1010
2023-06-17T13:15:21.240Z,1009.9
2023-06-17T13:30:21.853Z,1009.9
2023-06-17T13:45:20.970Z,1009.7
2023-06-17T14:00:21.337Z,1009.5
2023-06-17T14:15:20.406Z,1009.5
2023-06-17T14:30:21.616Z,1009.4
2023-06-17T14:45:20.614Z,1009.3
2023-06-17T15:00:21.275Z,1009.3
2023-06-17T15:15:21.681Z,1009.3
2023-06-17T15:30:21.374Z,1009.3
2023-06-17T15:45:20.701Z,1009.4
2023-06-17T16:00:21.004Z,1009.4
2023-06-17T16:15:42.044Z,1009.4
2023-06-17T16:30:20.883Z,1009.4
2023-06-17T16:45:20.183Z,1009.6
2023-06-17T17:00:20.926Z,1009.5
2023-06-17T17:15:20.370Z,1009.6
2023-06-17T17:30:20.947Z,1009.9
2023-06-17T17:45:20.001Z,1010.1
2023-06-17T18:00:21.237Z,1010.1
2023-06-17T18:15:19.991Z,1010.2
2023-06-17T18:30:20.215Z,1010.2
2023-06-17T18:45:20.400Z,1010.2
2023-06-17T19:00:21.708Z,1010.3
2023-06-17T19:15:20.277Z,1010.3
2023-06-17T19:30:20.948Z,1010.4
2023-06-17T19:45:20.176Z,1010.5
2023-06-17T20:00:21.719Z,1010.6
2023-06-17T20:15:20.526Z,1010.6
2023-06-17T20:30:21.071Z,1010.6
2023-06-17T20:45:20.550Z,1010.6
2023-06-17T21:00:20.699Z,1010.7
2023-06-17T21:15:20.208Z,1010.8
2023-06-17T21:30:20.587Z,1010.8
2023-06-17T21:45:20.291Z,1010.7
2023-06-17T22:00:20.904Z,1010.7
2023-06-17T22:15:19.983Z,1010.7
2023-06-17T22:30:20.270Z,1010.7
2023-06-17T22:45:20.438Z,1010.6
2023-06-17T23:00:22.094Z,1010.5
2023-06-17T23:15:19.890Z,1010.5
2023-06-17T23:30:20.773Z,1010.6
2023-06-17T23:45:20.532Z,1010.5
